createdAt,value
2023-10-18T00:00:44.143Z,13.50
2023-10-18T00:01:45.928Z,13.50
2023-10-18T00:02:47.945Z,14.27
2023-10-18T00:03:49.879Z,15.27
2023-10-18T00:04:51.846Z,17.63
2023-10-18T00:05:53.673Z,15.27
2023-10-18T00:06:56.200Z,14.23
2023-10-18T00:07:58.811Z,14.43
2023-10-18T00:09:20.538Z,15.33
2023-10-18T00:10:22.246Z,15.83
2023-10-18T00:11:25.507Z,15.43
2023-10-18T00:12:27.404Z,16.23
2023-10-18T00:13:29.024Z,15.97
2023-10-18T00:14:30.639Z,14.17
2023-10-18T00:15:32.612Z,13.70
2023-10-18T00:16:34.229Z,14.27
2023-10-18T00:17:36.125Z,15.80
2023-10-18T00:18:38.009Z,15.17
2023-10-18T00:19:41.623Z,14.80
2023-10-18T00:20:44.684Z,15.13
2023-10-18T00:21:46.367Z,16.73
2023-10-18T00:22:48.506Z,16.03
2023-10-18T00:23:50.095Z,16.57
2023-10-18T00:24:51.713Z,15.63
2023-10-18T00:25:53.334Z,15.43
2023-10-18T00:26:55.391Z,14.50
2023-10-18T00:27:57.004Z,18.50
2023-10-18T00:28:58.624Z,16.20
2023-10-18T00:30:00.303Z,14.53
2023-10-18T00:31:12.946Z,13.93
2023-10-18T00:32:17.401Z,14.93
2023-10-18T00:33:20.291Z,14.80
2023-10-18T00:34:22.169Z,14.77
2023-10-18T00:35:25.444Z,15.00
2023-10-18T00:36:27.134Z,16.67
2023-10-18T00:37:28.918Z,15.13
2023-10-18T00:38:30.536Z,14.73
2023-10-18T00:39:33.990Z,13.13
2023-10-18T00:40:37.035Z,13.70
2023-10-18T00:41:44.304Z,14.13
2023-10-18T00:42:45.988Z,14.23
2023-10-18T00:43:47.773Z,14.90
2023-10-18T00:44:51.509Z,14.20
2023-10-18T00:45:54.852Z,14.17
2023-10-18T00:46:57.500Z,15.40
2023-10-18T00:48:06.020Z,14.87
2023-10-18T00:49:16.977Z,14.47
2023-10-18T00:50:28.932Z,14.97
2023-10-18T00:51:30.772Z,14.50
2023-10-18T00:52:33.211Z,15.40
2023-10-18T00:53:35.172Z,16.40
2023-10-18T00:54:39.383Z,15.03
2023-10-18T00:55:41.115Z,14.83
2023-10-18T00:56:47.766Z,16.00
2023-10-18T00:57:49.863Z,17.00
2023-10-18T00:58:53.735Z,16.10
2023-10-18T00:59:57.959Z,16.27
2023-10-18T01:01:10.571Z,16.50
2023-10-18T01:02:12.825Z,17.10
2023-10-18T01:03:29.643Z,16.23
2023-10-18T01:04:35.811Z,15.13
2023-10-18T01:05:37.745Z,15.10
2023-10-18T01:06:45.979Z,14.47
2023-10-18T01:07:48.738Z,15.90
2023-10-18T01:08:51.236Z,16.40
2023-10-18T01:09:54.994Z,14.77
2023-10-18T01:11:07.856Z,16.53
2023-10-18T01:12:10.954Z,15.73
2023-10-18T01:13:13.165Z,15.53
2023-10-18T01:14:19.200Z,15.57
2023-10-18T01:15:21.689Z,17.93
2023-10-18T01:16:23.777Z,17.93
2023-10-18T01:17:27.033Z,16.53
2023-10-18T01:18:28.639Z,17.03
2023-10-18T01:19:31.808Z,16.33
2023-10-18T01:20:33.540Z,15.67
2023-10-18T01:21:35.413Z,17.70
2023-10-18T01:22:38.774Z,14.53
2023-10-18T01:23:50.314Z,14.57
2023-10-18T01:24:52.133Z,14.83
2023-10-18T01:25:53.743Z,15.27
2023-10-18T01:26:55.377Z,14.00
2023-10-18T01:27:57.784Z,15.70
2023-10-18T01:29:09.821Z,15.00
2023-10-18T01:30:15.792Z,14.03
2023-10-18T01:31:17.901Z,13.40
2023-10-18T01:32:20.167Z,13.63
2023-10-18T01:33:23.806Z,13.67
2023-10-18T01:34:27.305Z,14.33
2023-10-18T01:35:28.940Z,13.77
2023-10-18T01:36:33.619Z,13.97
2023-10-18T01:37:35.607Z,13.80
2023-10-18T01:38:37.347Z,14.07
2023-10-18T01:39:39.735Z,14.13
2023-10-18T01:40:53.416Z,13.50
2023-10-18T01:41:59.966Z,13.77
2023-10-18T01:43:01.567Z,13.90
2023-10-18T01:44:07.724Z,12.87
2023-10-18T01:45:10.065Z,14.37
2023-10-18T01:46:14.721Z,13.20
2023-10-18T01:47:16.585Z,14.30
2023-10-18T01:48:21.148Z,13.97
2023-10-18T01:49:27.302Z,13.30
2023-10-18T01:50:28.970Z,12.90
2023-10-18T01:51:30.666Z,13.07
2023-10-18T01:52:39.144Z,13.63
2023-10-18T01:53:42.864Z,13.57
2023-10-18T01:54:45.565Z,12.57
2023-10-18T01:55:54.661Z,13.47
2023-10-18T01:56:58.936Z,13.80
2023-10-18T01:58:00.588Z,12.37
2023-10-18T01:59:06.036Z,12.13
2023-10-18T02:00:14.144Z,12.20
2023-10-18T02:01:17.724Z,12.33
2023-10-18T02:02:19.674Z,12.37
2023-10-18T02:03:22.009Z,12.13
2023-10-18T02:05:32.851Z,10.83
2023-10-18T02:06:35.521Z,10.93
2023-10-18T02:07:37.120Z,11.67
2023-10-18T02:08:38.729Z,10.90
2023-10-18T02:09:50.701Z,12.43
2023-10-18T02:10:53.941Z,11.10
2023-10-18T02:11:55.667Z,11.67
2023-10-18T02:12:57.259Z,12.10
2023-10-18T02:13:59.004Z,10.13
2023-10-18T02:15:02.763Z,10.00
2023-10-18T02:16:07.867Z,10.37
2023-10-18T02:17:11.205Z,9.97
2023-10-18T02:18:15.418Z,12.57
2023-10-18T02:19:22.794Z,11.43
2023-10-18T02:20:30.154Z,11.23
2023-10-18T02:21:31.706Z,10.40
2023-10-18T02:22:33.765Z,10.50
2023-10-18T02:23:38.102Z,10.37
2023-10-18T02:24:40.160Z,10.23
2023-10-18T02:25:45.330Z,10.53
2023-10-18T02:27:04.754Z,11.83
2023-10-18T02:28:09.708Z,12.63
2023-10-18T02:29:14.250Z,12.57
2023-10-18T02:30:18.868Z,12.37
2023-10-18T02:31:23.540Z,19.90
2023-10-18T02:32:34.039Z,29.37
2023-10-18T02:33:39.664Z,14.17
2023-10-18T02:34:41.309Z,14.17
2023-10-18T02:35:44.994Z,14.17
2023-10-18T02:36:49.823Z,14.23
2023-10-18T02:37:52.542Z,14.53
2023-10-18T02:38:54.792Z,14.23
2023-10-18T02:40:09.117Z,13.97
2023-10-18T02:41:22.349Z,13.03
2023-10-18T02:42:25.950Z,12.90
2023-10-18T02:43:30.221Z,12.93
2023-10-18T02:44:34.846Z,13.13
2023-10-18T02:45:36.469Z,12.90
2023-10-18T02:46:38.274Z,13.17
2023-10-18T02:47:40.015Z,13.13
2023-10-18T02:48:42.487Z,12.37
2023-10-18T02:49:53.624Z,12.77
2023-10-18T02:50:56.063Z,12.87
2023-10-18T02:51:58.643Z,12.93
2023-10-18T02:53:01.790Z,13.53
2023-10-18T02:54:17.930Z,13.67
2023-10-18T02:55:20.515Z,12.47
2023-10-18T02:56:27.564Z,13.07
2023-10-18T02:57:29.230Z,12.67
2023-10-18T02:58:33.721Z,13.33
2023-10-18T02:59:36.483Z,13.30
2023-10-18T03:00:41.846Z,14.13
2023-10-18T03:01:44.453Z,13.70
2023-10-18T03:02:46.098Z,13.70
2023-10-18T03:03:48.076Z,13.80
2023-10-18T03:04:51.055Z,15.10
2023-10-18T03:05:53.008Z,14.30
2023-10-18T03:06:54.845Z,13.57
2023-10-18T03:07:56.933Z,13.00
2023-10-18T03:08:59.851Z,13.10
2023-10-18T03:10:12.994Z,12.87
2023-10-18T03:11:14.802Z,12.63
2023-10-18T03:12:16.423Z,12.40
2023-10-18T03:13:19.554Z,13.50
2023-10-18T03:14:37.314Z,12.67
2023-10-18T03:16:01.313Z,13.17
2023-10-18T03:17:15.864Z,12.90
2023-10-18T03:18:19.647Z,13.67
2023-10-18T03:19:21.340Z,13.90
2023-10-18T03:20:25.916Z,14.27
2023-10-18T03:21:33.395Z,13.93
2023-10-18T03:22:41.027Z,14.50
2023-10-18T03:23:45.786Z,13.63
2023-10-18T03:24:59.833Z,14.80
2023-10-18T03:26:02.540Z,14.50
2023-10-18T03:27:12.265Z,14.83
2023-10-18T03:28:16.522Z,14.80
2023-10-18T03:29:18.276Z,14.57
2023-10-18T03:30:20.225Z,15.07
2023-10-18T03:31:24.619Z,14.93
2023-10-18T03:32:27.205Z,14.57
2023-10-18T03:33:29.756Z,13.77
2023-10-18T03:34:31.339Z,13.63
2023-10-18T03:35:32.924Z,13.97
2023-10-18T03:36:36.817Z,14.80
2023-10-18T03:37:42.682Z,14.67
2023-10-18T03:38:53.004Z,13.93
2023-10-18T03:39:54.881Z,13.77
2023-10-18T03:40:59.184Z,13.73
2023-10-18T03:42:01.556Z,13.93
2023-10-18T03:43:09.782Z,13.10
2023-10-18T03:44:14.383Z,13.87
2023-10-18T03:45:22.107Z,12.60
2023-10-18T03:46:30.959Z,13.57
2023-10-18T03:47:42.764Z,13.03
2023-10-18T03:48:55.417Z,12.50
2023-10-18T03:49:59.779Z,12.73
2023-10-18T03:51:01.742Z,12.33
2023-10-18T03:52:13.863Z,12.20
2023-10-18T03:53:15.654Z,12.87
2023-10-18T03:54:17.274Z,11.97
2023-10-18T03:55:19.288Z,12.00
2023-10-18T03:56:23.417Z,12.00
2023-10-18T03:57:31.997Z,13.10
2023-10-18T03:58:36.103Z,11.90
2023-10-18T03:59:42.098Z,10.97
2023-10-18T04:00:55.593Z,10.53
2023-10-18T04:02:07.950Z,10.03
2023-10-18T04:03:13.061Z,10.67
2023-10-18T04:04:19.589Z,10.67
2023-10-18T04:05:36.308Z,10.47
2023-10-18T04:06:38.421Z,10.97
2023-10-18T04:07:43.245Z,10.53
2023-10-18T04:08:45.025Z,10.37
2023-10-18T04:10:08.949Z,10.67
2023-10-18T04:11:12.516Z,11.00
2023-10-18T04:12:20.460Z,10.47
2023-10-18T04:13:25.403Z,11.30
2023-10-18T04:14:27.199Z,11.40
2023-10-18T04:15:31.212Z,10.03
2023-10-18T04:16:33.013Z,11.00
2023-10-18T04:17:38.062Z,13.07
2023-10-18T04:18:43.457Z,12.03
2023-10-18T04:19:45.337Z,10.53
2023-10-18T04:20:48.012Z,11.60
2023-10-18T04:21:54.542Z,11.43
2023-10-18T04:22:56.972Z,11.43
2023-10-18T04:23:58.660Z,11.23
2023-10-18T04:25:00.486Z,11.47
2023-10-18T04:26:22.374Z,11.50
2023-10-18T04:27:24.786Z,11.57
2023-10-18T04:28:26.910Z,11.30
2023-10-18T04:29:34.278Z,11.30
2023-10-18T04:30:38.311Z,10.80
2023-10-18T04:31:40.034Z,11.83
2023-10-18T04:32:41.773Z,10.73
2023-10-18T04:33:44.533Z,10.30
2023-10-18T04:34:47.752Z,10.87
2023-10-18T04:35:53.396Z,9.73
2023-10-18T04:36:56.683Z,13.27
2023-10-18T04:37:58.394Z,11.70
2023-10-18T04:39:00.320Z,10.03
2023-10-18T04:40:02.084Z,10.53
2023-10-18T04:41:10.108Z,10.27
2023-10-18T04:42:17.952Z,11.27
2023-10-18T04:43:24.112Z,9.83
2023-10-18T04:44:25.964Z,9.93
2023-10-18T04:45:30.872Z,10.60
2023-10-18T04:46:34.031Z,10.43
2023-10-18T04:47:35.765Z,10.73
2023-10-18T04:48:52.455Z,11.20
2023-10-18T04:50:03.264Z,11.60
2023-10-18T04:51:07.740Z,11.60
2023-10-18T04:52:10.497Z,11.43
2023-10-18T04:53:15.386Z,12.07
2023-10-18T04:54:17.695Z,12.70
2023-10-18T04:55:20.066Z,12.37
2023-10-18T04:56:31.008Z,13.17
2023-10-18T04:57:39.726Z,13.67
2023-10-18T04:58:41.715Z,12.83
2023-10-18T04:59:46.911Z,13.20
2023-10-18T05:00:58.738Z,13.50
2023-10-18T05:02:00.553Z,14.00
2023-10-18T05:03:14.762Z,14.67
2023-10-18T05:04:22.925Z,15.17
2023-10-18T05:05:28.165Z,15.17
2023-10-18T05:06:35.724Z,14.43
2023-10-18T05:07:48.386Z,14.20
2023-10-18T05:08:50.296Z,13.20
2023-10-18T05:09:58.121Z,14.37
2023-10-18T05:11:19.754Z,13.70
2023-10-18T05:12:21.315Z,13.50
2023-10-18T05:13:34.754Z,12.83
2023-10-18T05:14:50.147Z,12.97
2023-10-18T05:16:01.053Z,12.17
2023-10-18T05:17:11.860Z,12.60
2023-10-18T05:18:16.876Z,11.07
2023-10-18T05:19:29.544Z,11.47
2023-10-18T05:20:49.070Z,12.03
2023-10-18T05:21:52.632Z,12.27
2023-10-18T05:22:55.578Z,11.67
2023-10-18T05:23:58.975Z,11.60
2023-10-18T05:25:12.923Z,12.10
2023-10-18T05:26:21.442Z,11.03
2023-10-18T05:27:26.219Z,11.40
2023-10-18T05:28:29.825Z,10.57
2023-10-18T05:29:43.682Z,11.00
2023-10-18T05:31:03.924Z,9.70
2023-10-18T05:32:11.263Z,10.60
2023-10-18T05:33:16.936Z,11.43
2023-10-18T05:34:18.606Z,10.97
2023-10-18T05:35:27.841Z,10.93
2023-10-18T05:36:52.863Z,11.27
2023-10-18T05:37:59.424Z,10.63
2023-10-18T05:39:19.539Z,10.83
2023-10-18T05:40:39.781Z,10.67
2023-10-18T05:41:51.792Z,10.73
2023-10-18T05:42:53.371Z,11.90
2023-10-18T05:44:02.860Z,11.70
2023-10-18T05:45:06.046Z,14.13
2023-10-18T05:46:09.187Z,11.97
2023-10-18T05:47:10.985Z,11.23
2023-10-18T05:48:18.333Z,11.80
2023-10-18T05:49:27.483Z,11.57
2023-10-18T05:50:35.951Z,10.70
2023-10-18T05:51:39.816Z,10.27
2023-10-18T05:52:45.649Z,9.83
2023-10-18T05:53:47.528Z,9.87
2023-10-18T05:54:50.928Z,9.20
2023-10-18T05:55:57.413Z,9.13
2023-10-18T05:56:59.213Z,8.70
2023-10-18T05:58:06.002Z,9.20
2023-10-18T05:59:22.842Z,9.03
2023-10-18T06:00:24.595Z,8.90
2023-10-18T06:01:26.230Z,9.10
2023-10-18T06:02:28.761Z,9.00
2023-10-18T06:03:42.728Z,8.87
2023-10-18T06:04:44.648Z,10.93
2023-10-18T06:05:46.658Z,9.47
2023-10-18T06:06:48.854Z,9.53
2023-10-18T06:07:50.550Z,10.27
2023-10-18T06:08:52.333Z,9.57
2023-10-18T06:09:59.727Z,10.13
2023-10-18T06:11:04.266Z,9.90
2023-10-18T06:12:07.444Z,9.17
2023-10-18T06:13:11.892Z,9.47
2023-10-18T06:14:17.599Z,9.00
2023-10-18T06:15:35.519Z,9.10
2023-10-18T06:16:37.653Z,10.60
2023-10-18T06:17:49.032Z,9.50
2023-10-18T06:18:51.187Z,9.80
2023-10-18T06:19:53.967Z,9.13
2023-10-18T06:20:59.503Z,9.27
2023-10-18T06:22:01.192Z,9.83
2023-10-18T06:23:21.630Z,10.87
2023-10-18T06:24:25.325Z,10.77
2023-10-18T06:25:27.316Z,10.73
2023-10-18T06:26:29.743Z,10.33
2023-10-18T06:27:40.358Z,10.60
2023-10-18T06:28:46.271Z,12.27
2023-10-18T06:29:53.048Z,10.77
2023-10-18T06:30:58.279Z,10.57
2023-10-18T06:32:00.324Z,10.37
2023-10-18T06:33:07.078Z,11.13
2023-10-18T06:34:16.852Z,10.37
2023-10-18T06:35:27.868Z,10.77
2023-10-18T06:36:33.642Z,12.77
2023-10-18T06:37:53.518Z,9.93
2023-10-18T06:38:55.254Z,11.63
2023-10-18T06:39:59.679Z,10.53
2023-10-18T06:41:06.837Z,10.80
2023-10-18T06:42:10.661Z,10.97
2023-10-18T06:43:13.895Z,10.30
2023-10-18T06:44:15.546Z,10.63
2023-10-18T06:45:18.678Z,11.90
2023-10-18T06:46:28.333Z,11.17
2023-10-18T06:47:45.172Z,11.40
2023-10-18T06:48:59.664Z,11.17
2023-10-18T06:50:17.853Z,11.97
2023-10-18T06:51:32.033Z,13.30
2023-10-18T06:52:45.678Z,11.17
2023-10-18T06:53:48.942Z,14.87
2023-10-18T06:54:55.468Z,14.03
2023-10-18T06:55:58.633Z,11.43
2023-10-18T06:57:16.532Z,13.63
2023-10-18T06:58:27.166Z,11.53
2023-10-18T06:59:29.771Z,11.63
2023-10-18T07:00:31.932Z,14.43
2023-10-18T07:01:34.558Z,11.77
2023-10-18T07:02:38.577Z,18.23
2023-10-18T07:03:44.424Z,12.53
2023-10-18T07:04:53.571Z,12.37
2023-10-18T07:05:59.317Z,12.63
2023-10-18T07:07:01.379Z,12.83
2023-10-18T07:08:04.067Z,16.87
2023-10-18T07:09:17.521Z,14.20
2023-10-18T07:10:31.869Z,14.63
2023-10-18T07:11:42.144Z,17.83
2023-10-18T07:12:53.518Z,18.67
2023-10-18T07:13:55.556Z,13.17
2023-10-18T07:14:58.181Z,15.60
2023-10-18T07:16:15.910Z,13.20
2023-10-18T07:17:22.717Z,12.93
2023-10-18T07:18:26.014Z,11.90
2023-10-18T07:19:28.828Z,12.70
2023-10-18T07:20:35.210Z,13.17
2023-10-18T07:21:39.342Z,11.30
2023-10-18T07:22:45.146Z,13.70
2023-10-18T07:23:55.616Z,16.03
2023-10-18T07:25:00.727Z,16.53
2023-10-18T07:26:08.669Z,11.80
2023-10-18T07:27:10.880Z,11.60
2023-10-18T07:28:12.518Z,11.70
2023-10-18T07:29:15.303Z,13.17
2023-10-18T07:30:17.053Z,12.00
2023-10-18T07:31:24.868Z,11.60
2023-10-18T07:32:30.193Z,12.43
2023-10-18T07:33:32.034Z,11.40
2023-10-18T07:34:37.966Z,12.23
2023-10-18T07:35:45.392Z,11.67
2023-10-18T07:36:47.215Z,12.00
2023-10-18T07:37:49.238Z,12.90
2023-10-18T07:38:56.604Z,12.67
2023-10-18T07:40:01.886Z,12.00
2023-10-18T07:41:04.701Z,15.23
2023-10-18T07:42:06.466Z,12.57
2023-10-18T07:43:14.182Z,11.60
2023-10-18T07:44:15.860Z,10.90
2023-10-18T07:45:18.250Z,10.27
2023-10-18T07:46:20.235Z,10.37
2023-10-18T07:47:26.818Z,11.43
2023-10-18T07:48:28.688Z,61.23
2023-10-18T07:49:32.515Z,30.40
2023-10-18T07:50:43.375Z,34.97
2023-10-18T07:51:50.853Z,21.73
2023-10-18T07:52:55.977Z,18.90
2023-10-18T07:53:58.370Z,18.63
2023-10-18T07:55:00.232Z,15.97
2023-10-18T07:56:01.928Z,28.60
2023-10-18T07:57:06.032Z,57.23
2023-10-18T07:58:23.641Z,36.13
2023-10-18T07:59:32.845Z,23.17
2023-10-18T08:00:36.700Z,17.33
2023-10-18T08:01:54.030Z,11.03
2023-10-18T08:02:56.029Z,9.20
2023-10-18T08:03:57.943Z,9.10
2023-10-18T08:05:01.858Z,10.83
2023-10-18T08:06:08.410Z,12.00
2023-10-18T08:07:13.594Z,13.43
2023-10-18T08:08:15.327Z,13.33
2023-10-18T08:09:30.458Z,19.47
2023-10-18T08:10:34.042Z,12.97
2023-10-18T08:11:35.659Z,12.87
2023-10-18T08:12:37.264Z,11.67
2023-10-18T08:13:48.929Z,12.03
2023-10-18T08:14:51.426Z,12.57
2023-10-18T08:15:57.911Z,15.43
2023-10-18T08:17:09.381Z,13.30
2023-10-18T08:18:16.771Z,15.13
2023-10-18T08:19:24.236Z,14.80
2023-10-18T08:20:25.910Z,15.40
2023-10-18T08:21:27.940Z,13.93
2023-10-18T08:22:29.667Z,11.00
2023-10-18T08:23:33.970Z,14.67
2023-10-18T08:24:39.098Z,13.53
2023-10-18T08:25:43.531Z,12.87
2023-10-18T08:26:48.386Z,16.90
2023-10-18T08:27:51.319Z,11.53
2023-10-18T08:28:54.890Z,13.60
2023-10-18T08:30:05.412Z,11.43
2023-10-18T08:31:50.323Z,13.13
2023-10-18T08:32:52.739Z,13.80
2023-10-18T08:33:58.330Z,10.67
2023-10-18T08:35:07.278Z,10.53
2023-10-18T08:36:14.508Z,11.80
2023-10-18T08:37:16.278Z,9.90
2023-10-18T08:38:17.846Z,9.53
2023-10-18T08:39:27.041Z,9.27
2023-10-18T08:40:38.788Z,8.17
2023-10-18T08:42:03.713Z,13.00
2023-10-18T08:43:29.876Z,11.33
2023-10-18T08:44:40.385Z,14.87
2023-10-18T08:45:48.465Z,14.57
2023-10-18T08:46:55.902Z,14.37
2023-10-18T08:47:59.452Z,12.57
2023-10-18T08:49:01.476Z,12.63
2023-10-18T08:50:06.772Z,14.90
2023-10-18T08:51:08.791Z,17.60
2023-10-18T08:52:10.912Z,11.93
2023-10-18T08:53:16.344Z,12.37
2023-10-18T08:54:20.967Z,9.30
2023-10-18T08:55:45.073Z,9.90
2023-10-18T08:56:53.078Z,8.53
2023-10-18T08:57:58.004Z,8.93
2023-10-18T08:59:01.628Z,9.20
2023-10-18T09:00:24.417Z,10.07
2023-10-18T09:01:27.032Z,9.03
2023-10-18T09:02:40.451Z,8.30
2023-10-18T09:03:42.390Z,8.93
2023-10-18T09:04:47.098Z,7.37
2023-10-18T09:05:51.991Z,7.93
2023-10-18T09:06:53.650Z,7.70
2023-10-18T09:08:04.227Z,8.17
2023-10-18T09:09:06.914Z,8.03
2023-10-18T09:10:14.649Z,7.93
2023-10-18T09:11:22.785Z,8.33
2023-10-18T09:12:54.953Z,7.87
2023-10-18T09:14:09.766Z,8.20
2023-10-18T09:15:48.661Z,7.63
2023-10-18T09:17:01.930Z,9.40
2023-10-18T09:18:05.373Z,7.10
2023-10-18T09:19:11.246Z,7.83
2023-10-18T09:20:16.594Z,7.93
2023-10-18T09:21:18.311Z,8.17
2023-10-18T09:22:20.810Z,7.10
2023-10-18T09:23:26.359Z,7.80
2023-10-18T09:24:33.496Z,7.93
2023-10-18T09:25:50.137Z,8.43
2023-10-18T09:26:52.325Z,8.27
2023-10-18T09:28:09.350Z,8.87
2023-10-18T09:29:12.012Z,10.03
2023-10-18T09:30:19.532Z,9.17
2023-10-18T09:31:23.426Z,8.63
2023-10-18T09:32:34.221Z,7.03
2023-10-18T09:33:37.347Z,7.70
2023-10-18T09:34:43.954Z,8.00
2023-10-18T09:35:49.000Z,7.87
2023-10-18T09:36:58.166Z,10.10
2023-10-18T09:38:09.309Z,8.13
2023-10-18T09:39:11.150Z,6.70
2023-10-18T09:40:13.219Z,7.00
2023-10-18T09:41:16.915Z,7.20
2023-10-18T09:42:18.524Z,6.73
2023-10-18T09:43:20.162Z,7.07
2023-10-18T09:44:21.937Z,10.17
2023-10-18T09:45:23.564Z,7.00
2023-10-18T09:46:25.611Z,7.17
2023-10-18T09:47:27.755Z,7.93
2023-10-18T09:48:33.841Z,8.20
2023-10-18T09:49:36.150Z,7.77
2023-10-18T09:50:41.153Z,7.73
2023-10-18T09:51:46.125Z,7.67
2023-10-18T09:52:48.727Z,6.93
2023-10-18T09:53:53.939Z,7.37
2023-10-18T09:55:02.414Z,7.97
2023-10-18T09:56:05.063Z,7.20
2023-10-18T09:57:07.883Z,6.83
2023-10-18T09:58:16.859Z,7.03
2023-10-18T09:59:27.182Z,7.73
2023-10-18T10:00:31.204Z,8.77
2023-10-18T10:01:57.504Z,6.53
2023-10-18T10:03:00.768Z,7.73
2023-10-18T10:04:05.574Z,8.90
2023-10-18T10:05:25.414Z,7.90
2023-10-18T10:06:28.965Z,14.67
2023-10-18T10:07:40.810Z,10.60
2023-10-18T10:08:44.386Z,11.67
2023-10-18T10:09:48.720Z,11.33
2023-10-18T10:12:29.613Z,12.17
2023-10-18T10:13:33.516Z,11.17
2023-10-18T10:14:37.091Z,13.23
2023-10-18T10:15:39.407Z,11.00
2023-10-18T10:16:47.023Z,10.63
2023-10-18T10:17:58.678Z,13.90
2023-10-18T10:19:06.067Z,11.90
2023-10-18T10:20:12.310Z,11.37
2023-10-18T10:21:22.426Z,9.63
2023-10-18T10:22:28.391Z,10.57
2023-10-18T10:23:34.668Z,9.57
2023-10-18T10:24:46.236Z,10.90
2023-10-18T10:26:32.490Z,10.23
2023-10-18T10:27:35.105Z,9.20
2023-10-18T10:29:03.375Z,9.60
2023-10-18T10:30:24.944Z,10.67
2023-10-18T10:31:27.832Z,8.63
2023-10-18T10:32:29.760Z,7.77
2023-10-18T10:34:06.884Z,8.70
2023-10-18T10:35:16.792Z,7.33
2023-10-18T10:36:19.478Z,6.93
2023-10-18T10:37:21.194Z,8.33
2023-10-18T10:38:27.822Z,7.67
2023-10-18T10:39:33.360Z,10.43
2023-10-18T10:40:39.497Z,8.50
2023-10-18T10:41:42.219Z,7.73
2023-10-18T10:42:49.795Z,7.63
2023-10-18T10:44:12.873Z,10.33
2023-10-18T10:45:39.884Z,7.93
2023-10-18T10:46:46.530Z,7.90
2023-10-18T10:47:51.773Z,9.50
2023-10-18T10:48:57.434Z,8.43
2023-10-18T10:50:02.825Z,10.87
2023-10-18T10:51:18.027Z,13.70
2023-10-18T10:52:21.021Z,12.77
2023-10-18T10:53:36.753Z,9.70
2023-10-18T10:54:40.574Z,10.30
2023-10-18T10:55:44.766Z,9.13
2023-10-18T10:56:52.020Z,9.30
2023-10-18T10:57:54.822Z,10.03
2023-10-18T10:59:19.637Z,9.13
2023-10-18T11:00:38.593Z,8.47
2023-10-18T11:01:41.962Z,9.20
2023-10-18T11:02:47.111Z,9.50
2023-10-18T11:03:55.223Z,17.93
2023-10-18T11:05:00.693Z,10.17
2023-10-18T11:06:06.880Z,8.37
2023-10-18T11:07:14.671Z,8.97
2023-10-18T11:08:16.547Z,13.23
2023-10-18T11:09:18.204Z,11.47
2023-10-18T11:10:20.883Z,12.73
2023-10-18T11:11:23.113Z,10.97
2023-10-18T11:12:25.928Z,10.17
2023-10-18T11:13:27.673Z,9.67
2023-10-18T11:14:29.695Z,12.00
2023-10-18T11:15:31.985Z,12.73
2023-10-18T11:16:33.628Z,10.13
2023-10-18T11:17:37.251Z,11.03
2023-10-18T11:18:43.387Z,12.13
2023-10-18T11:19:52.758Z,11.07
2023-10-18T11:21:06.752Z,12.87
2023-10-18T11:22:09.257Z,9.93
2023-10-18T11:23:11.778Z,11.63
2023-10-18T11:24:13.931Z,10.47
2023-10-18T11:25:21.002Z,11.87
2023-10-18T11:26:25.347Z,13.23
2023-10-18T11:27:34.964Z,12.67
2023-10-18T11:28:39.979Z,13.03
2023-10-18T11:29:43.142Z,11.33
2023-10-18T11:30:46.164Z,13.20
2023-10-18T11:31:47.975Z,13.63
2023-10-18T11:32:52.010Z,10.73
2023-10-18T11:34:15.548Z,12.17
2023-10-18T11:35:38.789Z,9.93
2023-10-18T11:36:42.225Z,9.87
2023-10-18T11:37:46.144Z,9.47
2023-10-18T11:39:06.718Z,13.57
2023-10-18T11:40:38.764Z,11.33
2023-10-18T11:41:42.832Z,13.17
2023-10-18T11:43:06.147Z,11.00
2023-10-18T11:44:09.484Z,9.93
2023-10-18T11:45:20.000Z,8.23
2023-10-18T11:46:21.805Z,8.53
2023-10-18T11:47:23.810Z,10.50
2023-10-18T11:48:34.002Z,11.87
2023-10-18T11:49:43.608Z,13.37
2023-10-18T11:50:48.758Z,10.07
2023-10-18T11:51:52.226Z,9.53
2023-10-18T11:52:53.894Z,11.80
2023-10-18T11:53:56.345Z,10.00
2023-10-18T11:55:10.702Z,11.43
2023-10-18T11:56:14.479Z,9.77
2023-10-18T11:57:30.757Z,9.63
2023-10-18T11:58:35.090Z,9.70
2023-10-18T12:00:29.846Z,9.87
2023-10-18T12:01:38.937Z,12.70
2023-10-18T12:02:41.937Z,9.60
2023-10-18T12:03:45.616Z,10.03
2023-10-18T12:04:49.247Z,10.73
2023-10-18T12:05:51.536Z,13.50
2023-10-18T12:06:53.374Z,11.43
2023-10-18T12:07:58.450Z,9.80
2023-10-18T12:09:26.640Z,13.50
2023-10-18T12:10:36.106Z,8.80
2023-10-18T12:11:39.065Z,9.80
2023-10-18T12:12:40.679Z,10.07
2023-10-18T12:13:42.930Z,9.77
2023-10-18T12:14:44.619Z,9.03
2023-10-18T12:15:46.276Z,11.93
2023-10-18T12:16:48.016Z,10.37
2023-10-18T12:17:50.605Z,10.70
2023-10-18T12:18:53.485Z,12.17
2023-10-18T12:19:55.110Z,10.97
2023-10-18T12:20:57.568Z,13.90
2023-10-18T12:22:01.351Z,8.83
2023-10-18T12:23:05.899Z,9.00
2023-10-18T12:24:11.642Z,8.17
2023-10-18T12:25:16.842Z,8.27
2023-10-18T12:26:19.010Z,9.53
2023-10-18T12:27:34.900Z,8.63
2023-10-18T12:28:39.441Z,14.23
2023-10-18T12:29:41.478Z,10.07
2023-10-18T12:30:45.147Z,9.00
2023-10-18T12:31:54.519Z,8.07
2023-10-18T12:32:56.306Z,10.03
2023-10-18T12:34:02.074Z,10.43
2023-10-18T12:35:13.964Z,9.10
2023-10-18T12:36:23.716Z,9.40
2023-10-18T12:37:27.094Z,8.07
2023-10-18T12:38:39.631Z,9.67
2023-10-18T12:39:47.514Z,8.27
2023-10-18T12:41:02.323Z,8.87
2023-10-18T12:42:06.306Z,8.53
2023-10-18T12:43:09.211Z,11.90
2023-10-18T12:44:19.169Z,10.73
2023-10-18T12:45:21.453Z,9.03
2023-10-18T12:46:23.844Z,11.20
2023-10-18T12:47:25.719Z,11.17
2023-10-18T12:48:28.631Z,11.67
2023-10-18T12:49:33.546Z,10.37
2023-10-18T12:50:35.251Z,10.10
2023-10-18T12:51:42.021Z,12.47
2023-10-18T12:52:44.849Z,9.50
2023-10-18T12:53:56.577Z,10.40
2023-10-18T12:55:01.796Z,9.83
2023-10-18T12:56:23.478Z,11.07
2023-10-18T12:57:33.612Z,10.37
2023-10-18T12:58:49.038Z,9.10
2023-10-18T13:00:01.169Z,9.87
2023-10-18T13:01:14.119Z,8.70
2023-10-18T13:02:36.162Z,9.90
2023-10-18T13:03:46.218Z,8.73
2023-10-18T13:04:51.798Z,7.87
2023-10-18T13:05:53.475Z,8.97
2023-10-18T13:06:55.278Z,10.27
2023-10-18T13:07:56.906Z,10.90
2023-10-18T13:09:14.932Z,9.73
2023-10-18T13:10:17.017Z,9.67
2023-10-18T13:11:18.637Z,11.67
2023-10-18T13:12:25.155Z,10.97
2023-10-18T13:13:31.321Z,10.70
2023-10-18T13:14:33.956Z,11.00
2023-10-18T13:15:41.918Z,11.63
2023-10-18T13:16:44.249Z,11.07
2023-10-18T13:17:45.859Z,9.67
2023-10-18T13:18:49.046Z,9.90
2023-10-18T13:19:50.864Z,8.20
2023-10-18T13:20:55.742Z,10.30
2023-10-18T13:21:57.596Z,11.97
2023-10-18T13:22:59.206Z,9.57
2023-10-18T13:24:00.951Z,11.13
2023-10-18T13:25:26.561Z,11.30
2023-10-18T13:26:30.095Z,10.47
2023-10-18T13:27:38.062Z,16.40
2023-10-18T13:29:05.606Z,10.37
2023-10-18T13:30:26.463Z,12.20
2023-10-18T13:31:35.045Z,11.67
2023-10-18T13:32:38.743Z,11.13
2023-10-18T13:33:41.112Z,13.50
2023-10-18T13:34:44.872Z,10.47
2023-10-18T13:35:47.327Z,11.00
2023-10-18T13:36:50.811Z,14.20
2023-10-18T13:37:52.618Z,11.53
2023-10-18T13:38:55.101Z,11.93
2023-10-18T13:39:57.249Z,10.93
2023-10-18T13:41:01.463Z,10.77
2023-10-18T13:42:04.019Z,9.90
2023-10-18T13:43:06.419Z,10.10
2023-10-18T13:44:11.405Z,10.20
2023-10-18T13:45:16.594Z,11.57
2023-10-18T13:46:21.516Z,12.40
2023-10-18T13:47:28.088Z,11.13
2023-10-18T13:48:30.023Z,10.10
2023-10-18T13:49:31.749Z,10.17
2023-10-18T13:50:39.289Z,10.67
2023-10-18T13:51:42.474Z,12.33
2023-10-18T13:52:47.916Z,11.90
2023-10-18T13:53:49.772Z,12.10
2023-10-18T13:54:52.330Z,10.93
2023-10-18T13:55:58.832Z,12.63
2023-10-18T13:57:00.435Z,10.83
2023-10-18T13:58:02.040Z,10.20
2023-10-18T13:59:03.875Z,10.23
2023-10-18T14:00:09.215Z,10.80
2023-10-18T14:01:23.808Z,14.93
2023-10-18T14:02:27.813Z,10.13
2023-10-18T14:03:29.637Z,9.33
2023-10-18T14:04:34.090Z,7.53
2023-10-18T14:05:46.797Z,9.97
2023-10-18T14:06:55.109Z,9.43
2023-10-18T14:07:57.236Z,7.63
2023-10-18T14:09:00.845Z,9.00
2023-10-18T14:10:09.480Z,14.03
2023-10-18T14:11:14.395Z,14.53
2023-10-18T14:12:16.147Z,11.27
2023-10-18T14:13:18.255Z,10.00
2023-10-18T14:14:21.170Z,8.83
2023-10-18T14:15:23.059Z,8.77
2023-10-18T14:16:24.644Z,7.93
2023-10-18T14:17:28.542Z,7.93
2023-10-18T14:18:33.114Z,7.47
2023-10-18T14:19:34.859Z,9.90
2023-10-18T14:20:39.813Z,7.87
2023-10-18T14:21:43.543Z,8.47
2023-10-18T14:22:54.133Z,11.73